createdAt,value
2022-11-29T13:18:54.635Z,35.30
2022-11-29T13:22:28.747Z,38.70
2022-11-29T13:25:58.736Z,37.40
2022-11-29T13:29:27.476Z,38.80
2022-11-29T13:33:00.272Z,36.70
2022-11-29T13:36:39.867Z,40.10
2022-11-29T13:40:21.067Z,38.20
2022-11-29T13:43:53.161Z,37.20
2022-11-29T13:47:21.345Z,38.50
2022-11-29T13:50:51.381Z,38.10
2022-11-29T13:54:32.135Z,38.70
2022-11-29T13:58:20.709Z,37.10
2022-11-29T14:01:52.869Z,37.60
2022-11-29T14:05:33.590Z,37.10
2022-11-29T14:09:20.288Z,41.30
2022-11-29T14:12:54.796Z,48.00
2022-11-29T14:16:30.412Z,37.50
2022-11-29T14:20:33.970Z,38.00
2022-11-29T14:24:42.182Z,36.40
2022-11-29T14:28:31.694Z,33.70
2022-11-29T14:32:00.281Z,33.70
2022-11-29T14:35:35.471Z,33.40
2022-11-29T14:39:14.964Z,33.90
2022-11-29T14:42:49.806Z,36.50
2022-11-29T14:46:29.630Z,35.10
2022-11-29T14:49:58.588Z,33.80
2022-11-29T14:53:37.357Z,41.40
2022-11-29T14:57:40.981Z,43.90
2022-11-29T15:04:40.084Z,42.90
2022-11-29T15:08:13.504Z,38.80
2022-11-29T15:11:56.836Z,32.00
2022-11-29T15:15:46.088Z,38.90
2022-11-29T15:19:50.809Z,30.80
2022-11-29T15:23:19.626Z,29.60
2022-11-29T15:26:59.524Z,29.20
2022-11-29T15:30:48.691Z,27.30
2022-11-29T15:34:24.995Z,28.40
2022-11-29T15:37:53.348Z,28.40
2022-11-29T15:41:28.980Z,29.10
2022-11-29T15:44:55.949Z,30.10
2022-11-29T15:48:25.544Z,30.90
2022-11-29T15:51:57.021Z,32.10
2022-11-29T15:55:24.363Z,33.20
2022-11-29T15:58:52.635Z,34.20
2022-11-29T16:02:22.720Z,32.50
2022-11-29T16:05:56.439Z,33.60
2022-11-29T16:09:36.288Z,34.20
2022-11-29T16:13:06.929Z,34.00
2022-11-29T16:16:35.922Z,34.10
2022-11-29T16:20:24.902Z,34.90
2022-11-29T16:23:51.807Z,32.00
2022-11-29T16:27:20.679Z,33.70
2022-11-29T16:30:58.014Z,33.30
2022-11-29T16:34:33.388Z,32.20
2022-11-29T16:38:00.807Z,32.60
2022-11-29T16:41:36.169Z,33.30
2022-11-29T16:45:07.337Z,33.50
2022-11-29T16:48:38.779Z,35.20
2022-11-29T16:52:24.766Z,35.60
2022-11-29T16:55:53.113Z,35.00
2022-11-29T16:59:27.864Z,38.00
2022-11-29T17:02:58.424Z,36.60
2022-11-29T17:06:26.504Z,36.70
2022-11-29T17:09:54.939Z,37.00
2022-11-29T17:13:21.596Z,37.70
2022-11-29T17:16:50.009Z,37.00
2022-11-29T17:20:17.491Z,35.90
2022-11-29T17:23:44.464Z,36.20
2022-11-29T17:27:12.813Z,37.20
2022-11-29T17:30:41.286Z,37.60
2022-11-29T17:34:11.444Z,35.30
2022-11-29T17:37:41.207Z,33.70
2022-11-29T17:41:18.235Z,34.60
2022-11-29T17:44:47.873Z,33.40
2022-11-29T17:48:15.410Z,34.20
2022-11-29T17:51:51.716Z,35.70
2022-11-29T17:55:20.949Z,32.30
2022-11-29T17:58:52.362Z,32.80
2022-11-29T18:02:19.552Z,33.30
2022-11-29T18:05:46.481Z,34.30
2022-11-29T18:09:14.230Z,33.00
2022-11-29T18:12:41.550Z,34.00
2022-11-29T18:16:13.182Z,34.70
2022-11-29T18:19:40.042Z,33.00
2022-11-29T18:23:08.374Z,35.30
2022-11-29T18:26:36.858Z,34.40
2022-11-29T18:30:09.548Z,32.60
2022-11-29T18:33:36.115Z,32.90
2022-11-29T18:37:03.689Z,34.40
2022-11-29T18:40:31.431Z,35.70
2022-11-29T18:44:03.422Z,35.20
2022-11-29T18:47:33.113Z,34.40
2022-11-29T18:51:04.579Z,33.80
2022-11-29T18:54:31.619Z,32.80
2022-11-29T18:57:58.444Z,30.10
2022-11-29T19:01:26.580Z,32.30
2022-11-29T19:04:53.812Z,33.60
2022-11-29T19:08:20.556Z,31.50
2022-11-29T19:11:49.042Z,31.70
2022-11-29T19:15:17.552Z,32.70
2022-11-29T19:18:44.171Z,33.50
2022-11-29T19:22:13.959Z,31.80
2022-11-29T19:25:40.427Z,35.40
2022-11-29T19:29:07.564Z,34.90
2022-11-29T19:32:38.099Z,33.70
2022-11-29T19:36:12.657Z,40.30
2022-11-29T19:39:39.510Z,36.70
2022-11-29T19:43:06.814Z,39.10
2022-11-29T19:46:35.796Z,38.70
2022-11-29T19:50:03.729Z,35.80
2022-11-29T19:53:35.193Z,37.20
2022-11-29T19:57:03.068Z,36.00
2022-11-29T20:00:31.618Z,40.40
2022-11-29T20:04:07.990Z,37.90
2022-11-29T20:07:35.721Z,39.00
2022-11-29T20:11:10.278Z,36.00
2022-11-29T20:14:41.390Z,37.80
2022-11-29T20:18:08.343Z,37.30
2022-11-29T20:21:35.792Z,37.80
2022-11-29T20:25:03.217Z,37.40
2022-11-29T20:28:32.283Z,39.60
2022-11-29T20:31:58.893Z,40.40
2022-11-29T20:35:26.663Z,40.60
2022-11-29T20:39:01.710Z,40.70
2022-11-29T20:43:07.992Z,40.70
2022-11-29T20:46:35.299Z,41.30
2022-11-29T20:50:03.449Z,41.50
2022-11-29T20:53:39.539Z,42.60
2022-11-29T20:57:06.494Z,43.40
2022-11-29T21:00:36.898Z,43.70
2022-11-29T21:04:04.918Z,42.70
2022-11-29T21:07:31.673Z,40.40
2022-11-29T21:11:06.058Z,40.10
2022-11-29T21:14:35.180Z,38.10
2022-11-29T21:18:03.431Z,38.40
2022-11-29T21:21:34.080Z,37.90
2022-11-29T21:25:14.740Z,35.90
2022-11-29T21:28:50.647Z,36.20
2022-11-29T21:32:24.746Z,37.90
2022-11-29T21:35:58.523Z,38.10
2022-11-29T21:39:31.309Z,37.60
2022-11-29T21:43:04.636Z,38.30
2022-11-29T21:46:33.999Z,38.80
2022-11-29T21:50:00.974Z,39.90
2022-11-29T21:53:29.725Z,37.90
2022-11-29T21:56:57.461Z,38.30
2022-11-29T22:00:27.349Z,37.40
2022-11-29T22:03:55.649Z,38.30
2022-11-29T22:07:22.530Z,36.70
2022-11-29T22:10:49.085Z,36.40
2022-11-29T22:14:18.402Z,42.90
2022-11-29T22:17:46.238Z,43.50
2022-11-29T22:21:13.011Z,34.60
2022-11-29T22:24:40.946Z,36.40
2022-11-29T22:28:10.458Z,37.90
2022-11-29T22:31:38.976Z,35.30
2022-11-29T22:35:06.091Z,35.30
2022-11-29T22:38:33.996Z,34.10
2022-11-29T22:42:00.207Z,34.50
2022-11-29T22:45:28.222Z,36.60
2022-11-29T22:48:56.894Z,37.10
2022-11-29T22:52:23.276Z,35.20
2022-11-29T22:55:50.264Z,36.20
2022-11-29T22:59:17.958Z,40.00
2022-11-29T23:02:45.479Z,36.80
2022-11-29T23:06:14.706Z,38.10
2022-11-29T23:09:44.767Z,38.80
2022-11-29T23:13:12.223Z,37.10
2022-11-29T23:16:38.888Z,39.10
2022-11-29T23:20:07.943Z,37.00
2022-11-29T23:23:38.117Z,36.80
2022-11-29T23:27:05.882Z,35.60
2022-11-29T23:30:33.824Z,34.40
2022-11-29T23:34:00.548Z,34.80
2022-11-29T23:37:47.463Z,35.80
2022-11-29T23:41:31.342Z,36.10
2022-11-29T23:44:58.483Z,35.80
2022-11-29T23:48:25.749Z,34.50
2022-11-29T23:51:54.111Z,35.70
2022-11-29T23:55:25.370Z,35.70
2022-11-29T23:58:59.136Z,35.40
